sensor_id;sensor_type;location;lat;lon;timestamp;pressure;altitude;pressure_sealevel;temperature;humidity
78584;BME280;67880;46.082;18.234;2023-09-19T00:00:21;99254.53;;;24.27;60.93
78584;BME280;67880;46.082;18.234;2023-09-19T00:01:03;99255.63;;;24.26;61.51
78584;BME280;67880;46.082;18.234;2023-09-19T00:02:21;99251.78;;;24.27;61.10
78584;BME280;67880;46.082;18.234;2023-09-19T00:03:10;99250.16;;;24.26;61.77
78584;BME280;67880;46.082;18.234;2023-09-19T00:03:45;99244.97;;;24.29;61.49
78584;BME280;67880;46.082;18.234;2023-09-19T00:04:20;99243.56;;;24.27;61.50
78584;BME280;67880;46.082;18.234;2023-09-19T00:05:03;99259.72;;;24.23;61.24
78584;BME280;67880;46.082;18.234;2023-09-19T00:05:52;99254.19;;;24.18;61.80
78584;BME280;67880;46.082;18.234;2023-09-19T00:06:32;99249.03;;;24.22;61.09
78584;BME280;67880;46.082;18.234;2023-09-19T00:07:05;99247.34;;;24.21;61.59
78584;BME280;67880;46.082;18.234;2023-09-19T00:07:37;99248.44;;;24.20;61.24
78584;BME280;67880;46.082;18.234;2023-09-19T00:08:12;99247.66;;;24.24;61.41
78584;BME280;67880;46.082;18.234;2023-09-19T00:08:47;99241.34;;;24.24;61.43
78584;BME280;67880;46.082;18.234;2023-09-19T00:09:19;99249.25;;;24.20;61.73
78584;BME280;67880;46.082;18.234;2023-09-19T00:09:54;99244.59;;;24.21;61.72
78584;BME280;67880;46.082;18.234;2023-09-19T00:10:28;99248.38;;;24.15;61.59
78584;BME280;67880;46.082;18.234;2023-09-19T00:11:06;99238.25;;;24.15;61.82
78584;BME280;67880;46.082;18.234;2023-09-19T00:11:49;99236.91;;;24.18;61.71
78584;BME280;67880;46.082;18.234;2023-09-19T00:12:26;99232.50;;;24.17;61.46
78584;BME280;67880;46.082;18.234;2023-09-19T00:12:59;99235.25;;;24.17;61.77
78584;BME280;67880;46.082;18.234;2023-09-19T00:13:41;99231.91;;;24.15;61.93
78584;BME280;67880;46.082;18.234;2023-09-19T00:14:14;99229.16;;;24.10;62.21
78584;BME280;67880;46.082;18.234;2023-09-19T00:14:48;99234.66;;;24.15;61.70
78584;BME280;67880;46.082;18.234;2023-09-19T00:15:23;99234.97;;;24.18;61.62
78584;BME280;67880;46.082;18.234;2023-09-19T00:16:29;99229.69;;;24.12;61.30
78584;BME280;67880;46.082;18.234;2023-09-19T00:17:04;99230.47;;;24.07;62.23
78584;BME280;67880;46.082;18.234;2023-09-19T00:17:41;99221.41;;;24.07;61.96
78584;BME280;67880;46.082;18.234;2023-09-19T00:18:19;99230.66;;;24.00;62.22
78584;BME280;67880;46.082;18.234;2023-09-19T00:18:53;99225.19;;;24.00;62.26
78584;BME280;67880;46.082;18.234;2023-09-19T00:19:28;99223.34;;;24.06;62.18
78584;BME280;67880;46.082;18.234;2023-09-19T00:20:11;99234.31;;;24.06;61.70
78584;BME280;67880;46.082;18.234;2023-09-19T00:20:46;99224.16;;;24.07;62.00
78584;BME280;67880;46.082;18.234;2023-09-19T00:21:23;99220.31;;;24.08;62.63
78584;BME280;67880;46.082;18.234;2023-09-19T00:21:57;99227.47;;;24.09;62.57
78584;BME280;67880;46.082;18.234;2023-09-19T00:22:30;99226.41;;;24.10;62.27
78584;BME280;67880;46.082;18.234;2023-09-19T00:23:05;99221.41;;;24.07;62.24
78584;BME280;67880;46.082;18.234;2023-09-19T00:23:44;99228.88;;;24.11;62.29
78584;BME280;67880;46.082;18.234;2023-09-19T00:24:16;99224.16;;;24.07;62.09
78584;BME280;67880;46.082;18.234;2023-09-19T00:24:51;99221.41;;;24.07;62.02
78584;BME280;67880;46.082;18.234;2023-09-19T00:25:35;99225.25;;;24.05;61.83
78584;BME280;67880;46.082;18.234;2023-09-19T00:26:07;99232.72;;;24.10;62.21
78584;BME280;67880;46.082;18.234;2023-09-19T00:26:42;99224.97;;;24.07;62.45
78584;BME280;67880;46.082;18.234;2023-09-19T00:27:21;99220.31;;;24.08;62.52
78584;BME280;67880;46.082;18.234;2023-09-19T00:27:54;99235.41;;;24.05;62.78
78584;BME280;67880;46.082;18.234;2023-09-19T00:28:27;99221.41;;;24.07;62.23
78584;BME280;67880;46.082;18.234;2023-09-19T00:29:01;99232.66;;;24.05;62.71
78584;BME280;67880;46.082;18.234;2023-09-19T00:29:41;99228.81;;;24.06;62.42
78584;BME280;67880;46.082;18.234;2023-09-19T00:30:21;99233.22;;;24.07;62.65
78584;BME280;67880;46.082;18.234;2023-09-19T00:30:56;99223.88;;;24.03;62.54
78584;BME280;67880;46.082;18.234;2023-09-19T00:32:04;99226.84;;;24.01;62.80
78584;BME280;67880;46.082;18.234;2023-09-19T00:32:50;99219.44;;;24.02;62.94
78584;BME280;67880;46.082;18.234;2023-09-19T00:33:28;99227.66;;;24.02;62.65
78584;BME280;67880;46.082;18.234;2023-09-19T00:34:03;99222.25;;;24.07;62.57
78584;BME280;67880;46.082;18.234;2023-09-19T00:34:38;99218.94;;;24.05;63.04
78584;BME280;67880;46.082;18.234;2023-09-19T00:35:11;99225.50;;;24.04;62.41
78584;BME280;67880;46.082;18.234;2023-09-19T00:35:54;99220.22;;;23.97;62.72
78584;BME280;67880;46.082;18.234;2023-09-19T00:37:02;99231.19;;;23.97;63.14
78584;BME280;67880;46.082;18.234;2023-09-19T00:37:46;99221.06;;;23.98;62.84
78584;BME280;67880;46.082;18.234;2023-09-19T00:38:26;99225.13;;;23.95;62.97
78584;BME280;67880;46.082;18.234;2023-09-19T00:39:01;99218.00;;;23.94;62.87
78584;BME280;67880;46.082;18.234;2023-09-19T00:39:37;99228.72;;;23.96;62.67
78584;BME280;67880;46.082;18.234;2023-09-19T00:40:10;99224.88;;;23.97;62.81
78584;BME280;67880;46.082;18.234;2023-09-19T00:40:50;99227.63;;;23.97;62.43
78584;BME280;67880;46.082;18.234;2023-09-19T00:41:27;99227.38;;;23.98;62.64
78584;BME280;67880;46.082;18.234;2023-09-19T00:42:11;99229.75;;;23.90;62.94
78584;BME280;67880;46.082;18.234;2023-09-19T00:42:57;99228.66;;;23.91;62.98
78584;BME280;67880;46.082;18.234;2023-09-19T00:43:35;99221.47;;;23.85;63.69
78584;BME280;67880;46.082;18.234;2023-09-19T00:44:11;99221.47;;;23.85;63.15
78584;BME280;67880;46.082;18.234;2023-09-19T00:44:50;99224.19;;;23.85;63.50
78584;BME280;67880;46.082;18.234;2023-09-19T00:45:25;99225.03;;;23.85;63.61
78584;BME280;67880;46.082;18.234;2023-09-19T00:45:59;99229.63;;;23.80;62.74
78584;BME280;67880;46.082;18.234;2023-09-19T00:46:38;99232.03;;;23.76;64.44
78584;BME280;67880;46.082;18.234;2023-09-19T00:47:14;99227.41;;;23.76;63.98
78584;BME280;67880;46.082;18.234;2023-09-19T00:48:01;99221.31;;;23.74;63.57
78584;BME280;67880;46.082;18.234;2023-09-19T00:48:46;99219.03;;;23.66;64.31
78584;BME280;67880;46.082;18.234;2023-09-19T00:49:18;99219.13;;;23.71;64.75
78584;BME280;67880;46.082;18.234;2023-09-19T00:49:57;99220.41;;;23.64;64.54
78584;BME280;67880;46.082;18.234;2023-09-19T00:50:36;99218.72;;;23.63;64.17
78584;BME280;67880;46.082;18.234;2023-09-19T00:51:12;99219.53;;;23.63;64.87
78584;BME280;67880;46.082;18.234;2023-09-19T00:51:47;99214.38;;;23.67;64.12
78584;BME280;67880;46.082;18.234;2023-09-19T00:52:54;99225.03;;;23.63;64.80
78584;BME280;67880;46.082;18.234;2023-09-19T00:53:30;99225.03;;;23.63;64.05
78584;BME280;67880;46.082;18.234;2023-09-19T00:54:04;99226.50;;;23.71;64.27
78584;BME280;67880;46.082;18.234;2023-09-19T00:54:39;99227.06;;;23.73;63.78
78584;BME280;67880;46.082;18.234;2023-09-19T00:55:14;99231.16;;;23.70;64.16
78584;BME280;67880;46.082;18.234;2023-09-19T00:55:55;99223.44;;;23.67;64.31
78584;BME280;67880;46.082;18.234;2023-09-19T00:56:35;99220.13;;;23.65;64.14
78584;BME280;67880;46.082;18.234;2023-09-19T00:57:18;99212.41;;;23.62;64.81
78584;BME280;67880;46.082;18.234;2023-09-19T00:57:54;99223.97;;;23.64;64.96
78584;BME280;67880;46.082;18.234;2023-09-19T00:58:27;99213.41;;;23.56;64.86
78584;BME280;67880;46.082;18.234;2023-09-19T00:59:05;99221.13;;;23.59;65.14
78584;BME280;67880;46.082;18.234;2023-09-19T00:59:41;99224.94;;;23.58;65.07
78584;BME280;67880;46.082;18.234;2023-09-19T01:00:14;99223.53;;;23.56;64.74
78584;BME280;67880;46.082;18.234;2023-09-19T01:00:57;99219.97;;;23.55;64.84
78584;BME280;67880;46.082;18.234;2023-09-19T01:01:40;99221.56;;;23.51;65.19
78584;BME280;67880;46.082;18.234;2023-09-19T01:02:15;99216.66;;;23.53;65.01
78584;BME280;67880;46.082;18.234;2023-09-19T01:02:50;99213.91;;;23.53;65.22
78584;BME280;67880;46.082;18.234;2023-09-19T01:03:27;99220.47;;;23.52;65.23
78584;BME280;67880;46.082;18.234;2023-09-19T01:04:02;99225.97;;;23.52;64.80
78584;BME280;67880;46.082;18.234;2023-09-19T01:04:42;99216.41;;;23.55;65.12
78584;BME280;67880;46.082;18.234;2023-09-19T01:06:03;99220.72;;;23.50;65.34
78584;BME280;67880;46.082;18.234;2023-09-19T01:06:36;99221.81;;;23.49;64.55
78584;BME280;67880;46.082;18.234;2023-09-19T01:07:09;99218.25;;;23.49;65.42
78584;BME280;67880;46.082;18.234;2023-09-19T01:07:41;99214.41;;;23.50;65.25
78584;BME280;67880;46.082;18.234;2023-09-19T01:08:20;99216.03;;;23.46;65.76
78584;BME280;67880;46.082;18.234;2023-09-19T01:08:52;99213.28;;;23.46;65.61
78584;BME280;67880;46.082;18.234;2023-09-19T01:09:35;99220.16;;;23.48;65.35
78584;BME280;67880;46.082;18.234;2023-09-19T01:10:23;99215.69;;;23.42;65.26
78584;BME280;67880;46.082;18.234;2023-09-19T01:11:47;99214.94;;;23.47;65.77
78584;BME280;67880;46.082;18.234;2023-09-19T01:14:44;99214.94;;;23.47;65.31
78584;BME280;67880;46.082;18.234;2023-09-19T01:21:22;99211.16;;;23.31;66.29
78584;BME280;67880;46.082;18.234;2023-09-19T01:29:01;99213.47;;;23.39;65.63
78584;BME280;67880;46.082;18.234;2023-09-19T01:29:51;99212.94;;;23.42;66.22
78584;BME280;67880;46.082;18.234;2023-09-19T01:30:35;99211.28;;;23.41;66.57
78584;BME280;67880;46.082;18.234;2023-09-19T01:31:12;99212.03;;;23.37;65.92
78584;BME280;67880;46.082;18.234;2023-09-19T01:32:25;99212.03;;;23.37;66.58
78584;BME280;67880;46.082;18.234;2023-09-19T01:33:06;99211.75;;;23.33;66.72
78584;BME280;67880;46.082;18.234;2023-09-19T01:33:58;99208.94;;;23.28;66.40
78584;BME280;67880;46.082;18.234;2023-09-19T01:34:52;99211.84;;;23.21;66.58
78584;BME280;67880;46.082;18.234;2023-09-19T01:35:28;99210.19;;;23.20;67.09
78584;BME280;67880;46.082;18.234;2023-09-19T01:36:04;99210.19;;;23.20;66.89
78584;BME280;67880;46.082;18.234;2023-09-19T01:36:42;99211.50;;;23.18;67.23
78584;BME280;67880;46.082;18.234;2023-09-19T01:37:21;99206.63;;;23.20;66.53
78584;BME280;67880;46.082;18.234;2023-09-19T01:37:58;99206.63;;;23.20;67.05
78584;BME280;67880;46.082;18.234;2023-09-19T01:38:34;99206.03;;;23.18;67.34
78584;BME280;67880;46.082;18.234;2023-09-19T01:39:11;99215.34;;;23.17;67.12
78584;BME280;67880;46.082;18.234;2023-09-19T01:40:10;99207.66;;;23.14;67.23
78584;BME280;67880;46.082;18.234;2023-09-19T01:41:12;99205.09;;;23.07;67.49
78584;BME280;67880;46.082;18.234;2023-09-19T01:42:12;99215.69;;;23.04;67.54
78584;BME280;67880;46.082;18.234;2023-09-19T01:43:27;99216.38;;;22.94;67.94
78584;BME280;67880;46.082;18.234;2023-09-19T01:44:09;99215.22;;;22.90;67.92
78584;BME280;67880;46.082;18.234;2023-09-19T01:45:12;99223.50;;;22.95;68.58
78584;BME280;67880;46.082;18.234;2023-09-19T01:46:07;99219.88;;;22.89;68.38
78584;BME280;67880;46.082;18.234;2023-09-19T01:46:58;99211.91;;;22.88;68.67
78584;BME280;67880;46.082;18.234;2023-09-19T01:47:46;99222.03;;;22.87;68.41
78584;BME280;67880;46.082;18.234;2023-09-19T01:49:41;99219.63;;;22.91;68.00
78584;BME280;67880;46.082;18.234;2023-09-19T01:51:06;99219.19;;;22.82;68.42
78584;BME280;67880;46.082;18.234;2023-09-19T01:52:00;99216.19;;;22.84;68.59
78584;BME280;67880;46.082;18.234;2023-09-19T01:53:25;99216.03;;;22.74;69.41
78584;BME280;67880;46.082;18.234;2023-09-19T01:54:15;99214.34;;;22.73;68.65
78584;BME280;67880;46.082;18.234;2023-09-19T01:54:52;99215.78;;;22.75;68.55
78584;BME280;67880;46.082;18.234;2023-09-19T01:55:29;99214.31;;;22.67;69.48
78584;BME280;67880;46.082;18.234;2023-09-19T01:56:10;99216.69;;;22.64;68.94
78584;BME280;67880;46.082;18.234;2023-09-19T01:59:13;99211.56;;;22.51;70.67
78584;BME280;67880;46.082;18.234;2023-09-19T02:00:52;99216.28;;;22.55;69.93
78584;BME280;67880;46.082;18.234;2023-09-19T02:01:31;99216.03;;;22.57;69.78
78584;BME280;67880;46.082;18.234;2023-09-19T02:02:11;99222.69;;;22.61;69.48
78584;BME280;67880;46.082;18.234;2023-09-19T02:03:33;99210.81;;;22.55;70.02
78584;BME280;67880;46.082;18.234;2023-09-19T02:04:24;99210.22;;;22.53;70.07
78584;BME280;67880;46.082;18.234;2023-09-19T02:05:02;99210.72;;;22.50;69.91
78584;BME280;67880;46.082;18.234;2023-09-19T02:05:54;99213.13;;;22.47;69.58
78584;BME280;67880;46.082;18.234;2023-09-19T02:06:29;99217.50;;;22.48;70.01
78584;BME280;67880;46.082;18.234;2023-09-19T02:07:13;99213.22;;;22.52;70.07
78584;BME280;67880;46.082;18.234;2023-09-19T02:07:48;99217.84;;;22.51;69.75
78584;BME280;67880;46.082;18.234;2023-09-19T02:08:22;99213.38;;;22.45;69.92
78584;BME280;67880;46.082;18.234;2023-09-19T02:09:07;99213.13;;;22.47;70.12
78584;BME280;67880;46.082;18.234;2023-09-19T02:09:45;99216.44;;;22.49;69.87
78584;BME280;67880;46.082;18.234;2023-09-19T02:10:37;99220.50;;;22.46;69.96
78584;BME280;67880;46.082;18.234;2023-09-19T02:11:15;99221.84;;;22.43;69.71
78584;BME280;67880;46.082;18.234;2023-09-19T02:11:54;99217.75;;;22.46;70.07
78584;BME280;67880;46.082;18.234;2023-09-19T02:12:35;99214.09;;;22.40;70.03
78584;BME280;67880;46.082;18.234;2023-09-19T02:13:57;99206.25;;;22.44;69.69
78584;BME280;67880;46.082;18.234;2023-09-19T02:15:16;99218.91;;;22.33;70.49
78584;BME280;67880;46.082;18.234;2023-09-19T02:15:55;99211.31;;;22.35;70.38
78584;BME280;67880;46.082;18.234;2023-09-19T02:17:50;99219.16;;;22.32;70.03
78584;BME280;67880;46.082;18.234;2023-09-19T02:21:57;99205.94;;;22.12;71.60
78584;BME280;67880;46.082;18.234;2023-09-19T02:23:36;99216.19;;;22.05;72.08
78584;BME280;67880;46.082;18.234;2023-09-19T02:24:40;99206.81;;;22.01;71.11
78584;BME280;67880;46.082;18.234;2023-09-19T02:26:44;99212.25;;;22.12;71.25
78584;BME280;67880;46.082;18.234;2023-09-19T02:27:39;99206.22;;;21.99;71.70
78584;BME280;67880;46.082;18.234;2023-09-19T02:28:31;99202.66;;;21.98;71.70
78584;BME280;67880;46.082;18.234;2023-09-19T02:29:17;99209.88;;;22.04;71.70
78584;BME280;67880;46.082;18.234;2023-09-19T02:30:17;99208.22;;;22.03;71.47
78584;BME280;67880;46.082;18.234;2023-09-19T02:31:31;99203.63;;;21.92;72.24
78584;BME280;67880;46.082;18.234;2023-09-19T02:32:23;99208.97;;;21.99;71.64
78584;BME280;67880;46.082;18.234;2023-09-19T02:34:06;99215.97;;;21.95;71.57
78584;BME280;67880;46.082;18.234;2023-09-19T02:35:28;99214.91;;;21.96;72.60
78584;BME280;67880;46.082;18.234;2023-09-19T02:39:24;99216.22;;;21.93;71.93
78584;BME280;67880;46.082;18.234;2023-09-19T02:41:02;99212.22;;;21.84;71.98
78584;BME280;67880;46.082;18.234;2023-09-19T02:42:11;99220.31;;;21.79;72.51
78584;BME280;67880;46.082;18.234;2023-09-19T02:43:44;99212.81;;;21.86;72.47
78584;BME280;67880;46.082;18.234;2023-09-19T02:46:50;99220.78;;;21.76;72.03
78584;BME280;67880;46.082;18.234;2023-09-19T02:47:50;99218.00;;;21.71;72.95
78584;BME280;67880;46.082;18.234;2023-09-19T02:49:43;99216.50;;;21.80;72.30
78584;BME280;67880;46.082;18.234;2023-09-19T02:50:42;99216.50;;;21.80;72.28
78584;BME280;67880;46.082;18.234;2023-09-19T02:52:48;99218.81;;;21.71;72.70
78584;BME280;67880;46.082;18.234;2023-09-19T02:54:52;99225.31;;;21.70;72.21
78584;BME280;67880;46.082;18.234;2023-09-19T02:56:17;99230.06;;;21.75;71.74
78584;BME280;67880;46.082;18.234;2023-09-19T02:56:52;99235.94;;;21.67;72.38
78584;BME280;67880;46.082;18.234;2023-09-19T02:57:31;99228.19;;;21.63;73.01
78584;BME280;67880;46.082;18.234;2023-09-19T02:58:09;99220.00;;;21.63;72.61
78584;BME280;67880;46.082;18.234;2023-09-19T02:59:26;99231.66;;;21.71;72.71
78584;BME280;67880;46.082;18.234;2023-09-19T03:00:11;99235.69;;;21.68;72.32
78584;BME280;67880;46.082;18.234;2023-09-19T03:01:14;99224.16;;;21.66;72.45
78584;BME280;67880;46.082;18.234;2023-09-19T03:01:51;99233.09;;;21.61;72.51
78584;BME280;67880;46.082;18.234;2023-09-19T03:02:26;99233.34;;;21.60;72.98
78584;BME280;67880;46.082;18.234;2023-09-19T03:03:05;99232.97;;;21.56;73.13
78584;BME280;67880;46.082;18.234;2023-09-19T03:04:13;99229.06;;;21.52;72.73
78584;BME280;67880;46.082;18.234;2023-09-19T03:05:25;99230.28;;;21.45;73.41
78584;BME280;67880;46.082;18.234;2023-09-19T03:05:58;99235.13;;;21.43;74.04
78584;BME280;67880;46.082;18.234;2023-09-19T03:06:30;99228.97;;;21.47;73.77
78584;BME280;67880;46.082;18.234;2023-09-19T03:07:49;99236.91;;;21.49;73.07
78584;BME280;67880;46.082;18.234;2023-09-19T03:08:59;99228.38;;;21.45;73.48
78584;BME280;67880;46.082;18.234;2023-09-19T03:09:32;99238.13;;;21.41;73.50
78584;BME280;67880;46.082;18.234;2023-09-19T03:10:06;99243.47;;;21.36;74.34
78584;BME280;67880;46.082;18.234;2023-09-19T03:10:39;99242.06;;;21.33;73.83
78584;BME280;67880;46.082;18.234;2023-09-19T03:11:11;99245.38;;;21.35;73.71
78584;BME280;67880;46.082;18.234;2023-09-19T03:12:54;99245.03;;;21.32;74.41
78584;BME280;67880;46.082;18.234;2023-09-19T03:13:26;99238.97;;;21.30;74.33
78584;BME280;67880;46.082;18.234;2023-09-19T03:13:59;99237.88;;;21.31;73.74
78584;BME280;67880;46.082;18.234;2023-09-19T03:15:04;99232.31;;;21.26;74.37
78584;BME280;67880;46.082;18.234;2023-09-19T03:16:09;99239.31;;;21.22;74.11
78584;BME280;67880;46.082;18.234;2023-09-19T03:16:42;99236.56;;;21.22;74.99
78584;BME280;67880;46.082;18.234;2023-09-19T03:17:16;99234.41;;;21.24;74.47
78584;BME280;67880;46.082;18.234;2023-09-19T03:18:58;99227.31;;;21.23;75.02
78584;BME280;67880;46.082;18.234;2023-09-19T03:20:05;99224.56;;;21.11;75.41
78584;BME280;67880;46.082;18.234;2023-09-19T03:21:13;99227.56;;;21.09;75.05
78584;BME280;67880;46.082;18.234;2023-09-19T03:21:46;99222.69;;;21.12;75.32
78584;BME280;67880;46.082;18.234;2023-09-19T03:22:27;99228.75;;;21.14;74.89
78584;BME280;67880;46.082;18.234;2023-09-19T03:23:38;99232.88;;;21.04;75.58
78584;BME280;67880;46.082;18.234;2023-09-19T03:24:47;99226.84;;;21.02;75.42
78584;BME280;67880;46.082;18.234;2023-09-19T03:26:01;99230.78;;;20.95;76.41
78584;BME280;67880;46.082;18.234;2023-09-19T03:26:35;99231.47;;;20.90;76.49
78584;BME280;67880;46.082;18.234;2023-09-19T03:27:12;99233.25;;;20.96;75.61
78584;BME280;67880;46.082;18.234;2023-09-19T03:27:47;99225.91;;;20.97;75.41
78584;BME280;67880;46.082;18.234;2023-09-19T03:29:05;99224.56;;;20.99;76.28
78584;BME280;67880;46.082;18.234;2023-09-19T03:29:42;99223.16;;;20.97;75.95
78584;BME280;67880;46.082;18.234;2023-09-19T03:30:15;99230.66;;;20.90;75.84
78584;BME280;67880;46.082;18.234;2023-09-19T03:31:32;99226.84;;;20.91;76.09
78584;BME280;67880;46.082;18.234;2023-09-19T03:32:46;99235.84;;;20.91;76.61
78584;BME280;67880;46.082;18.234;2023-09-19T03:33:22;99224.94;;;20.91;75.58
78584;BME280;67880;46.082;18.234;2023-09-19T03:34:01;99224.00;;;20.97;76.11
78584;BME280;67880;46.082;18.234;2023-09-19T03:34:36;99225.91;;;20.97;75.68
78584;BME280;67880;46.082;18.234;2023-09-19T03:35:52;99232.44;;;20.96;75.34
78584;BME280;67880;46.082;18.234;2023-09-19T03:36:29;99224.69;;;20.93;75.65
78584;BME280;67880;46.082;18.234;2023-09-19T03:37:01;99228.63;;;20.97;75.46
78584;BME280;67880;46.082;18.234;2023-09-19T03:37:33;99232.53;;;20.89;75.94
78584;BME280;67880;46.082;18.234;2023-09-19T03:38:05;99222.69;;;20.88;75.58
78584;BME280;67880;46.082;18.234;2023-09-19T03:38:41;99226.50;;;20.87;75.80
78584;BME280;67880;46.082;18.234;2023-09-19T03:39:13;99228.41;;;20.87;76.11
78584;BME280;67880;46.082;18.234;2023-09-19T03:39:47;99222.81;;;20.81;76.33
78584;BME280;67880;46.082;18.234;2023-09-19T03:40:53;99214.03;;;20.79;76.65
78584;BME280;67880;46.082;18.234;2023-09-19T03:41:29;99214.63;;;20.81;75.99
78584;BME280;67880;46.082;18.234;2023-09-19T03:42:03;99216.53;;;20.81;76.16
78584;BME280;67880;46.082;18.234;2023-09-19T03:42:42;99218.66;;;20.79;76.37
78584;BME280;67880;46.082;18.234;2023-09-19T03:43:14;99231.00;;;20.81;76.95
78584;BME280;67880;46.082;18.234;2023-09-19T03:43:46;99215.09;;;20.78;76.83
78584;BME280;67880;46.082;18.234;2023-09-19T03:44:19;99222.69;;;20.76;76.23
78584;BME280;67880;46.082;18.234;2023-09-19T03:45:27;99215.09;;;20.78;77.03
78584;BME280;67880;46.082;18.234;2023-09-19T03:46:03;99212.59;;;20.77;76.69
78584;BME280;67880;46.082;18.234;2023-09-19T03:47:11;99223.03;;;20.80;76.43
78584;BME280;67880;46.082;18.234;2023-09-19T03:47:44;99218.66;;;20.79;76.50
78584;BME280;67880;46.082;18.234;2023-09-19T03:48:19;99219.97;;;20.76;76.57
78584;BME280;67880;46.082;18.234;2023-09-19T03:49:28;99222.44;;;20.78;77.03
78584;BME280;67880;46.082;18.234;2023-09-19T03:50:02;99215.22;;;20.83;75.81
78584;BME280;67880;46.082;18.234;2023-09-19T03:50:34;99214.97;;;20.85;75.89
78584;BME280;67880;46.082;18.234;2023-09-19T03:51:06;99218.06;;;20.89;75.77
78584;BME280;67880;46.082;18.234;2023-09-19T03:52:57;99227.66;;;20.91;75.65
78584;BME280;67880;46.082;18.234;2023-09-19T03:53:29;99225.69;;;20.87;75.45
78584;BME280;67880;46.082;18.234;2023-09-19T03:54:01;99223.78;;;20.87;75.87
78584;BME280;67880;46.082;18.234;2023-09-19T03:54:35;99222.47;;;20.90;75.85
78584;BME280;67880;46.082;18.234;2023-09-19T03:55:44;99220.69;;;20.95;75.22
78584;BME280;67880;46.082;18.234;2023-09-19T03:56:25;99220.69;;;20.95;75.49
78584;BME280;67880;46.082;18.234;2023-09-19T03:57:30;99229.94;;;20.94;75.11
78584;BME280;67880;46.082;18.234;2023-09-19T03:58:35;99227.34;;;20.88;75.64
78584;BME280;67880;46.082;18.234;2023-09-19T03:59:11;99222.47;;;20.90;75.17
78584;BME280;67880;46.082;18.234;2023-09-19T03:59:43;99227.09;;;20.89;75.55
78584;BME280;67880;46.082;18.234;2023-09-19T04:00:50;99233.34;;;20.78;75.51
78584;BME280;67880;46.082;18.234;2023-09-19T04:01:24;99226.38;;;20.82;75.37
78584;BME280;67880;46.082;18.234;2023-09-19T04:02:01;99220.22;;;20.87;75.60
78584;BME280;67880;46.082;18.234;2023-09-19T04:02:35;99229.22;;;20.87;75.22
78584;BME280;67880;46.082;18.234;2023-09-19T04:03:10;99224.47;;;20.82;75.36
78584;BME280;67880;46.082;18.234;2023-09-19T04:03:51;99231.00;;;20.81;75.53
78584;BME280;67880;46.082;18.234;2023-09-19T04:04:25;99231.84;;;20.82;76.04
78584;BME280;67880;46.082;18.234;2023-09-19T04:05:34;99229.69;;;20.84;75.48
78584;BME280;67880;46.082;18.234;2023-09-19T04:06:06;99229.34;;;20.80;75.94
78584;BME280;67880;46.082;18.234;2023-09-19T04:06:38;99229.91;;;20.71;76.63
78584;BME280;67880;46.082;18.234;2023-09-19T04:07:10;99223.88;;;20.69;76.14
78584;BME280;67880;46.082;18.234;2023-09-19T04:07:42;99229.66;;;20.72;76.22
78584;BME280;67880;46.082;18.234;2023-09-19T04:08:51;99225.78;;;20.68;76.57
78584;BME280;67880;46.082;18.234;2023-09-19T04:09:23;99230.16;;;20.69;76.66
78584;BME280;67880;46.082;18.234;2023-09-19T04:09:56;99226.72;;;20.74;76.48
78584;BME280;67880;46.082;18.234;2023-09-19T04:11:01;99225.28;;;20.71;76.21
78584;BME280;67880;46.082;18.234;2023-09-19T04:11:33;99222.56;;;20.71;76.47
78584;BME280;67880;46.082;18.234;2023-09-19T04:12:09;99224.22;;;20.72;76.26
78584;BME280;67880;46.082;18.234;2023-09-19T04:12:53;99222.66;;;20.65;76.72
78584;BME280;67880;46.082;18.234;2023-09-19T04:13:33;99225.06;;;20.61;76.73
78584;BME280;67880;46.082;18.234;2023-09-19T04:14:06;99220.53;;;20.67;76.55
78584;BME280;67880;46.082;18.234;2023-09-19T04:14:38;99221.16;;;20.69;75.94
78584;BME280;67880;46.082;18.234;2023-09-19T04:15:10;99221.97;;;20.69;75.69
78584;BME280;67880;46.082;18.234;2023-09-19T04:16:18;99226.72;;;20.74;75.48
78584;BME280;67880;46.082;18.234;2023-09-19T04:16:54;99225.66;;;20.75;75.83
78584;BME280;67880;46.082;18.234;2023-09-19T04:17:59;99216.53;;;20.69;76.33
78584;BME280;67880;46.082;18.234;2023-09-19T04:18:31;99230.84;;;20.65;75.66
78584;BME280;67880;46.082;18.234;2023-09-19T04:19:05;99221.59;;;20.66;76.16
78584;BME280;67880;46.082;18.234;2023-09-19T04:19:44;99215.69;;;20.69;75.54
78584;BME280;67880;46.082;18.234;2023-09-19T04:20:21;99222.09;;;20.63;75.97
78584;BME280;67880;46.082;18.234;2023-09-19T04:20:58;99224.34;;;20.66;75.92
78584;BME280;67880;46.082;18.234;2023-09-19T04:21:32;99218.41;;;20.69;75.60
78584;BME280;67880;46.082;18.234;2023-09-19T04:22:14;99221.97;;;20.69;75.65
78584;BME280;67880;46.082;18.234;2023-09-19T04:22:54;99223.16;;;20.73;75.32
78584;BME280;67880;46.082;18.234;2023-09-19T04:23:27;99224.47;;;20.71;75.35
78584;BME280;67880;46.082;18.234;2023-09-19T04:24:33;99217.69;;;20.62;75.85
78584;BME280;67880;46.082;18.234;2023-09-19T04:25:09;99224.81;;;20.63;76.02
78584;BME280;67880;46.082;18.234;2023-09-19T04:25:43;99223.88;;;20.69;75.53
78584;BME280;67880;46.082;18.234;2023-09-19T04:26:48;99212.84;;;20.75;75.29
78584;BME280;67880;46.082;18.234;2023-09-19T04:27:21;99222.44;;;20.78;74.93
78584;BME280;67880;46.082;18.234;2023-09-19T04:28:33;99219.00;;;20.71;74.79
78584;BME280;67880;46.082;18.234;2023-09-19T04:29:45;99226.00;;;20.67;75.33
78584;BME280;67880;46.082;18.234;2023-09-19T04:30:17;99225.06;;;20.61;75.19
78584;BME280;67880;46.082;18.234;2023-09-19T04:30:50;99230.84;;;20.65;75.75
78584;BME280;67880;46.082;18.234;2023-09-19T04:31:56;99221.16;;;20.69;75.06
78584;BME280;67880;46.082;18.234;2023-09-19T04:32:33;99225.03;;;20.73;75.22
78584;BME280;67880;46.082;18.234;2023-09-19T04:33:38;99225.41;;;20.76;74.73